Time;durP1;ratioP1;P1;durP2;ratioP2;P2;SDS_P1;SDS_P2;PMS_P1;PMS_P2;Temp;Humidity;BMP_temperature;BMP_pressure;BME280_temperature;BME280_humidity;BME280_pressure;Samples;Min_cycle;Max_cycle;Signal;HPM_P1;HPM_P2
2024/05/07 00:01:35;;;;;;;4.97;2.95;;;12.20;99.90;15.90;99542.00;;;;5437862;26;20036;-53
2024/05/07 00:04:03;;;;;;;5.18;2.78;;;12.10;99.90;15.90;99544.00;;;;5445841;26;20029;-57
2024/05/07 00:06:29;;;;;;;3.30;3.00;;;12.00;99.90;15.70;99548.00;;;;5445408;26;20002;-56
2024/05/07 00:08:56;;;;;;;2.97;2.63;;;12.00;99.90;15.80;99552.00;;;;5440123;26;20453;-55
2024/05/07 00:11:22;;;;;;;4.93;2.80;;;12.00;99.90;15.80;99550.00;;;;5458923;26;20009;-47
2024/05/07 00:13:48;;;;;;;5.65;3.35;;;11.90;99.90;15.70;99561.00;;;;5450200;26;20034;-48
2024/05/07 00:16:14;;;;;;;6.65;2.97;;;11.90;99.90;15.70;99548.00;;;;5451287;26;20013;-49
2024/05/07 00:18:40;;;;;;;4.05;2.92;;;11.80;99.90;15.80;99547.00;;;;5458374;26;20003;-47
2024/05/07 00:21:07;;;;;;;5.32;3.08;;;11.70;99.90;15.70;99567.00;;;;5455750;26;19990;-48
2024/05/07 00:23:33;;;;;;;4.63;2.85;;;11.70;99.90;15.60;99568.00;;;;5450730;26;20011;-78
2024/05/07 00:25:59;;;;;;;6.95;3.78;;;11.70;99.90;15.40;99569.00;;;;5443971;26;19995;-47
2024/05/07 00:28:25;;;;;;;4.70;2.97;;;11.70;99.90;15.50;99569.00;;;;5443767;26;20040;-48
2024/05/07 00:30:52;;;;;;;8.52;3.30;;;11.60;99.90;15.60;99565.00;;;;5452972;26;20065;-47
2024/05/07 00:33:18;;;;;;;3.67;2.72;;;11.60;99.90;15.60;99567.00;;;;5448989;26;20011;-52
2024/05/07 00:35:44;;;;;;;7.45;3.45;;;11.50;99.90;15.50;99576.00;;;;5449848;26;20448;-49
2024/05/07 00:38:12;;;;;;;8.02;2.85;;;11.50;99.90;15.30;99575.00;;;;5440474;26;20002;-47
2024/05/07 00:40:45;;;;;;;3.85;3.25;;;11.50;99.90;15.50;99575.00;;;;5447174;26;20042;-49
2024/05/07 00:43:11;;;;;;;;;;;11.40;99.90;15.60;99576.00;;;;5439179;26;20004;-48
2024/05/07 00:45:37;;;;;;;7.88;3.88;;;11.40;99.90;15.60;99579.00;;;;5463399;26;19924;-47
2024/05/07 00:48:06;;;;;;;3.33;2.88;;;11.30;99.90;15.50;99583.00;;;;5438690;26;20381;-49
2024/05/07 00:50:36;;;;;;;3.67;3.28;;;11.30;99.90;15.40;99584.00;;;;5447779;26;19999;-48
2024/05/07 00:53:03;;;;;;;5.10;3.55;;;11.20;99.90;15.40;99590.00;;;;5437695;26;20457;-53
2024/05/07 00:55:31;;;;;;;5.88;3.28;;;11.10;99.90;15.40;99585.00;;;;5438193;26;20420;-47
2024/05/07 00:57:58;;;;;;;6.60;3.30;;;11.10;99.90;15.30;99595.00;;;;5439932;26;20014;-47
2024/05/07 01:00:25;;;;;;;3.85;3.45;;;11.10;99.90;15.30;99595.00;;;;5445121;26;20412;-49
2024/05/07 01:02:51;;;;;;;4.45;3.63;;;11.00;99.90;15.30;99598.00;;;;5441418;26;20130;-48
2024/05/07 01:05:17;;;;;;;7.03;3.60;;;11.00;99.90;15.20;99602.00;;;;5433733;26;20425;-48
2024/05/07 01:07:44;;;;;;;12.25;3.65;;;11.00;99.90;15.20;99601.00;;;;5457079;26;20038;-57
2024/05/07 01:10:10;;;;;;;6.50;3.65;;;10.90;99.90;15.20;99607.00;;;;5445708;26;20006;-47
2024/05/07 01:12:36;;;;;;;5.00;3.70;;;10.80;99.90;15.10;99602.00;;;;5448923;26;20009;-47
2024/05/07 01:15:03;;;;;;;7.80;3.20;;;10.70;99.90;15.10;99595.00;;;;5451868;26;20003;-47
2024/05/07 01:17:29;;;;;;;5.65;3.58;;;10.70;99.90;15.20;99594.00;;;;5434312;26;20003;-50
2024/05/07 01:19:56;;;;;;;4.38;3.83;;;10.60;99.90;15.10;99609.00;;;;5451406;26;19998;-48
2024/05/07 01:22:25;;;;;;;7.82;4.05;;;10.50;99.90;15.00;99605.00;;;;5454509;26;20014;-48
2024/05/07 01:24:51;;;;;;;9.88;3.78;;;10.50;99.90;14.90;99617.00;;;;5451061;26;20003;-51
2024/05/07 01:27:17;;;;;;;9.82;3.40;;;10.50;99.90;14.90;99623.00;;;;5457057;26;20068;-52
2024/05/07 01:29:43;;;;;;;6.10;3.72;;;10.40;99.90;14.70;99615.00;;;;5428838;26;20333;-47
2024/05/07 01:32:09;;;;;;;7.97;3.75;;;10.30;99.90;14.60;99627.00;;;;5454699;26;19995;-46
2024/05/07 01:34:36;;;;;;;4.13;3.70;;;10.30;99.90;14.60;99629.00;;;;5444059;26;19996;-46
2024/05/07 01:37:02;;;;;;;6.38;4.07;;;10.30;99.90;14.50;99625.00;;;;5432603;26;20448;-55
2024/05/07 01:39:28;;;;;;;8.68;4.30;;;10.30;99.90;14.60;99632.00;;;;5442923;26;19995;-48
2024/05/07 01:41:54;;;;;;;6.60;4.30;;;10.20;99.90;14.70;99633.00;;;;5451550;26;20031;-48
2024/05/07 01:44:20;;;;;;;6.57;4.30;;;10.20;99.90;14.70;99643.00;;;;5440565;26;20014;-48
2024/05/07 01:46:46;;;;;;;5.72;3.95;;;10.20;99.90;14.60;99647.00;;;;5431977;26;20007;-55
2024/05/07 01:49:15;;;;;;;6.53;4.00;;;10.20;99.90;14.30;99642.00;;;;5452968;26;20005;-50
2024/05/07 01:51:41;;;;;;;5.47;4.50;;;10.20;99.90;14.40;99650.00;;;;5446184;26;20015;-47
2024/05/07 01:54:08;;;;;;;5.82;4.40;;;10.30;99.90;14.30;99641.00;;;;5452549;26;20026;-50
2024/05/07 01:56:35;;;;;;;5.82;4.18;;;10.20;99.90;14.60;99644.00;;;;5439648;26;20004;-52
2024/05/07 01:59:03;;;;;;;5.82;3.92;;;10.30;99.90;14.40;99645.00;;;;5442335;26;20038;-47
2024/05/07 02:01:29;;;;;;;8.50;4.38;;;10.40;99.90;14.40;99645.00;;;;5436943;26;20398;-50
2024/05/07 02:03:55;;;;;;;5.63;4.43;;;10.40;99.90;14.40;99645.00;;;;5446106;26;20010;-47
2024/05/07 02:06:21;;;;;;;6.70;4.38;;;10.50;99.90;14.40;99644.00;;;;5441259;26;20003;-59
2024/05/07 02:08:48;;;;;;;6.18;4.07;;;10.60;99.90;14.70;99638.00;;;;5446925;26;20085;-54
2024/05/07 02:11:17;;;;;;;6.55;4.28;;;10.60;99.90;14.50;99651.00;;;;5447368;26;20010;-47
2024/05/07 02:13:44;;;;;;;7.47;3.90;;;10.70;99.90;14.60;99649.00;;;;5446132;26;19999;-54
2024/05/07 02:16:10;;;;;;;7.05;4.88;;;10.70;99.90;14.40;99657.00;;;;5432119;26;20060;-47
2024/05/07 02:18:37;;;;;;;6.65;4.43;;;10.80;99.90;14.30;99651.00;;;;5457444;26;20068;-49
2024/05/07 02:21:07;;;;;;;9.05;4.15;;;10.80;99.90;14.60;99651.00;;;;5425602;26;20010;-48
2024/05/07 02:23:33;;;;;;;4.95;3.65;;;10.80;99.90;14.50;99652.00;;;;5435699;26;20069;-52
2024/05/07 02:25:59;;;;;;;7.38;4.10;;;10.80;99.90;14.60;99651.00;;;;5458552;26;19994;-54
2024/05/07 02:28:25;;;;;;;5.38;4.25;;;10.90;99.90;14.90;99654.00;;;;5458109;26;19995;-55
2024/05/07 02:30:51;;;;;;;7.78;4.30;;;10.90;99.90;15.10;99653.00;;;;5458017;26;20385;-47
2024/05/07 02:33:17;;;;;;;6.63;4.20;;;11.00;99.90;15.20;99654.00;;;;5458285;26;20022;-48
2024/05/07 02:35:44;;;;;;;5.45;3.90;;;11.10;99.90;15.20;99648.00;;;;5457826;26;19999;-53
2024/05/07 02:38:11;;;;;;;5.53;4.28;;;11.10;99.90;15.00;99645.00;;;;5459599;26;20340;-46
2024/05/07 02:40:37;;;;;;;5.13;3.92;;;11.20;99.90;15.10;99648.00;;;;5459199;26;19995;-66
2024/05/07 02:43:06;;;;;;;6.80;4.38;;;11.20;99.90;15.00;99656.00;;;;5458639;26;20370;-52
2024/05/07 02:45:33;;;;;;;7.32;4.38;;;11.10;99.90;15.00;99662.00;;;;5449043;26;20381;-50
2024/05/07 02:47:59;;;;;;;4.50;4.10;;;11.10;99.90;14.90;99656.00;;;;5456764;26;20017;-51
2024/05/07 02:50:26;;;;;;;4.80;4.15;;;11.00;99.90;15.00;99657.00;;;;5456761;26;20010;-48
2024/05/07 02:52:52;;;;;;;9.27;4.32;;;10.90;99.90;14.90;99648.00;;;;5424059;26;20000;-57
2024/05/07 02:55:18;;;;;;;5.30;4.60;;;10.90;99.90;14.90;99653.00;;;;5448378;26;20002;-47
2024/05/07 02:57:44;;;;;;;6.03;4.38;;;10.90;99.90;14.80;99664.00;;;;5457751;26;20003;-48
2024/05/07 03:00:11;;;;;;;6.45;4.32;;;10.80;99.90;14.60;99669.00;;;;5457326;26;19994;-51
2024/05/07 03:02:43;;;;;;;5.50;4.38;;;10.80;99.90;14.80;99665.00;;;;5451902;26;20003;-48
2024/05/07 03:05:09;;;;;;;7.30;4.75;;;10.70;99.90;14.60;99676.00;;;;5437364;26;19995;-47
2024/05/07 03:07:35;;;;;;;5.20;4.70;;;10.60;99.90;14.60;99671.00;;;;5446965;26;20011;-47
2024/05/07 03:10:03;;;;;;;8.73;4.88;;;10.60;99.90;14.30;99667.00;;;;5456777;26;20021;-53
2024/05/07 03:12:29;;;;;;;7.00;5.45;;;10.60;99.90;14.20;99668.00;;;;5457135;26;20045;-48
2024/05/07 03:14:55;;;;;;;8.20;5.20;;;10.50;99.90;14.10;99675.00;;;;5457252;26;20039;-49
2024/05/07 03:17:21;;;;;;;6.82;5.25;;;10.50;99.90;14.10;99674.00;;;;5453668;26;19996;-52
2024/05/07 03:19:47;;;;;;;9.25;5.25;;;10.40;99.90;14.20;99674.00;;;;5434483;26;19999;-47
2024/05/07 03:22:14;;;;;;;6.13;5.10;;;10.30;99.90;14.20;99672.00;;;;5485513;26;20510;-48
2024/05/07 03:24:41;;;;;;;7.22;5.95;;;10.30;99.90;14.40;99668.00;;;;5458529;26;20007;-47
2024/05/07 03:27:07;;;;;;;12.18;6.03;;;10.20;99.90;14.30;99680.00;;;;5458361;26;19999;-47
2024/05/07 03:29:33;;;;;;;6.63;5.65;;;10.30;99.90;14.20;99684.00;;;;5456757;26;20396;-48
2024/05/07 03:31:59;;;;;;;11.02;6.00;;;10.30;99.90;14.20;99686.00;;;;5457585;26;20013;-54
2024/05/07 03:34:26;;;;;;;9.32;6.22;;;10.20;99.90;14.20;99685.00;;;;5457784;26;20325;-47
2024/05/07 03:36:52;;;;;;;10.10;6.20;;;10.20;99.90;14.40;99688.00;;;;5457477;26;20071;-47
2024/05/07 03:39:18;;;;;;;8.70;6.40;;;10.20;99.90;14.20;99690.00;;;;5459203;26;20301;-49
2024/05/07 03:41:45;;;;;;;8.55;6.38;;;10.20;99.90;14.40;99690.00;;;;5457455;26;20436;-50
2024/05/07 03:44:13;;;;;;;9.40;6.30;;;10.10;99.90;14.10;99698.00;;;;5457515;26;19999;-48
2024/05/07 03:46:39;;;;;;;7.20;5.97;;;10.10;99.90;14.20;99692.00;;;;5457416;26;20428;-48
2024/05/07 03:49:11;;;;;;;8.73;6.50;;;10.10;99.90;14.30;99696.00;;;;5441092;26;20003;-54
2024/05/07 03:51:42;;;;;;;8.27;6.68;;;10.10;99.90;14.20;99700.00;;;;5441020;26;19996;-48
2024/05/07 03:54:12;;;;;;;7.95;6.75;;;10.20;99.90;13.90;99690.00;;;;5449169;26;20015;-50
2024/05/07 03:56:38;;;;;;;9.25;6.30;;;10.20;99.90;13.70;99698.00;;;;5426240;26;20030;-48
2024/05/07 03:59:04;;;;;;;7.07;6.40;;;10.10;99.90;14.10;99693.00;;;;5441591;26;19999;-47
2024/05/07 04:01:30;;;;;;;7.22;5.97;;;10.10;99.90;14.00;99699.00;;;;5445826;26;20040;-54
2024/05/07 04:03:56;;;;;;;8.18;6.28;;;10.00;99.90;13.90;99702.00;;;;5454802;26;20014;-54
2024/05/07 04:06:23;;;;;;;10.32;7.07;;;10.00;99.90;14.00;99705.00;;;;5445687;26;20059;-61
2024/05/07 04:08:49;;;;;;;8.25;6.95;;;10.00;99.90;13.90;99705.00;;;;5438091;26;20022;-47
2024/05/07 04:11:15;;;;;;;7.78;6.97;;;10.00;99.90;13.90;99703.00;;;;5445302;26;20068;-47
2024/05/07 04:13:41;;;;;;;8.90;6.72;;;9.90;99.90;14.10;99718.00;;;;5442139;26;19999;-49
2024/05/07 04:16:09;;;;;;;8.77;7.55;;;9.90;99.90;14.10;99718.00;;;;5439093;26;20019;-75
2024/05/07 04:18:35;;;;;;;12.40;7.50;;;10.00;99.90;13.90;99727.00;;;;5431146;26;20004;-48
2024/05/07 04:21:02;;;;;;;7.78;7.03;;;10.00;99.90;13.60;99726.00;;;;5440585;26;19999;-50
2024/05/07 04:23:28;;;;;;;12.15;7.78;;;10.10;99.90;13.80;99718.00;;;;5444528;26;20040;-48
2024/05/07 04:25:54;;;;;;;12.25;7.57;;;10.10;99.90;13.60;99730.00;;;;5446080;26;20011;-47
2024/05/07 04:28:20;;;;;;;11.27;7.15;;;10.10;99.90;13.50;99732.00;;;;5438822;26;20010;-50
2024/05/07 04:30:46;;;;;;;13.60;7.15;;;10.10;99.90;13.80;99738.00;;;;5441262;26;19999;-48
2024/05/07 04:33:12;;;;;;;9.20;7.43;;;10.10;99.90;13.80;99737.00;;;;5436212;26;19995;-46
2024/05/07 04:35:39;;;;;;;10.18;7.88;;;10.10;99.90;14.00;99738.00;;;;5445242;26;20332;-48
2024/05/07 04:38:07;;;;;;;8.63;7.03;;;10.20;99.90;14.20;99740.00;;;;5441017;26;19996;-48
2024/05/07 04:40:33;;;;;;;11.15;7.55;;;10.30;99.90;14.30;99736.00;;;;5453231;26;20432;-49
2024/05/07 04:42:59;;;;;;;11.48;7.53;;;10.50;99.90;14.40;99738.00;;;;5437619;26;20013;-47
2024/05/07 04:45:26;;;;;;;9.32;7.90;;;10.60;99.90;14.10;99740.00;;;;5439412;26;20003;-48
2024/05/07 04:47:52;;;;;;;10.05;8.02;;;10.60;99.90;14.30;99743.00;;;;5459901;26;20003;-50
2024/05/07 04:50:19;;;;;;;10.57;7.72;;;10.70;99.90;14.40;99733.00;;;;5453833;26;20033;-50
2024/05/07 04:52:45;;;;;;;9.30;7.60;;;10.80;99.90;14.30;99734.00;;;;5437684;26;20012;-48
2024/05/07 04:55:11;;;;;;;9.13;7.82;;;10.80;99.90;14.20;99746.00;;;;5447906;26;20009;-47
2024/05/07 04:57:37;;;;;;;9.75;7.85;;;10.90;99.90;14.40;99747.00;;;;5452378;26;20019;-48
2024/05/07 05:00:05;;;;;;;9.95;7.55;;;11.00;99.90;14.60;99749.00;;;;5454094;26;20010;-49
2024/05/07 05:02:31;;;;;;;8.55;7.72;;;11.10;99.90;14.40;99756.00;;;;5450209;26;19998;-48
2024/05/07 05:04:57;;;;;;;8.85;7.45;;;11.10;99.90;14.60;99758.00;;;;5437373;26;20004;-51
2024/05/07 05:07:23;;;;;;;8.48;7.68;;;11.10;99.90;14.50;99763.00;;;;5448765;26;20075;-47
2024/05/07 05:09:50;;;;;;;10.43;7.90;;;11.10;99.90;14.60;99767.00;;;;5440161;26;20014;-47
2024/05/07 05:12:16;;;;;;;9.23;8.27;;;11.20;99.90;14.90;99777.00;;;;5443452;26;20017;-66
2024/05/07 05:14:42;;;;;;;12.85;8.55;;;11.30;99.90;14.50;99781.00;;;;5438888;26;20004;-52
2024/05/07 05:17:08;;;;;;;9.25;7.90;;;11.40;99.90;14.70;99785.00;;;;5433513;26;20073;-54
2024/05/07 05:19:34;;;;;;;8.68;7.55;;;11.50;99.90;14.90;99779.00;;;;5458942;26;20014;-49
2024/05/07 05:22:03;;;;;;;8.65;7.60;;;11.50;99.90;14.80;99788.00;;;;5444427;26;20388;-48
2024/05/07 05:24:29;;;;;;;8.45;7.60;;;11.60;99.90;14.40;99793.00;;;;5424295;26;20015;-48
2024/05/07 05:26:55;;;;;;;8.90;7.90;;;11.60;99.90;14.90;99795.00;;;;5457747;26;20387;-51
2024/05/07 05:29:21;;;;;;;9.23;7.25;;;11.60;99.90;14.40;99804.00;;;;5458576;26;19999;-48
2024/05/07 05:31:48;;;;;;;8.13;7.20;;;11.60;99.90;14.40;99802.00;;;;5458312;26;20305;-47
2024/05/07 05:34:14;;;;;;;8.68;6.90;;;11.60;99.90;14.30;99820.00;;;;5459182;26;20002;-55
2024/05/07 05:36:43;;;;;;;7.53;6.47;;;11.50;99.90;14.60;99819.00;;;;5459133;26;20044;-49
2024/05/07 05:39:09;;;;;;;6.93;6.18;;;11.50;99.90;14.60;99827.00;;;;5456863;26;19995;-53
2024/05/07 05:41:35;;;;;;;7.45;6.68;;;11.60;99.90;14.60;99824.00;;;;5447638;26;20014;-48
2024/05/07 05:44:02;;;;;;;6.72;6.07;;;11.60;99.90;14.40;99819.00;;;;5445039;26;19998;-49
2024/05/07 05:46:28;;;;;;;6.88;6.18;;;11.60;99.90;14.40;99835.00;;;;5450715;26;19998;-48
2024/05/07 05:48:54;;;;;;;6.68;5.82;;;11.60;99.90;14.40;99834.00;;;;5448906;26;20038;-61
2024/05/07 05:51:20;;;;;;;7.35;6.10;;;11.70;99.90;15.10;99842.00;;;;5438377;26;19999;-48
2024/05/07 05:53:46;;;;;;;8.15;6.40;;;11.70;99.90;15.20;99838.00;;;;5450387;26;20003;-53
2024/05/07 05:56:12;;;;;;;7.43;5.60;;;11.90;99.90;15.50;99848.00;;;;5450202;26;20082;-49
2024/05/07 05:58:39;;;;;;;10.48;6.43;;;12.00;99.90;15.30;99861.00;;;;5430507;26;20003;-47
2024/05/07 06:01:05;;;;;;;7.80;6.80;;;12.10;99.90;15.10;99860.00;;;;5442855;26;20010;-58
2024/05/07 06:03:32;;;;;;;7.30;6.60;;;12.10;99.90;15.40;99865.00;;;;5468628;26;20034;-50
2024/05/07 06:05:58;;;;;;;7.90;6.25;;;12.20;99.90;15.30;99869.00;;;;5447612;26;19999;-49
2024/05/07 06:08:24;;;;;;;7.15;6.40;;;12.30;99.90;15.70;99877.00;;;;5448851;26;20010;-48
2024/05/07 06:10:51;;;;;;;12.88;7.05;;;12.50;99.90;15.90;99880.00;;;;5436862;26;20010;-51
2024/05/07 06:13:17;;;;;;;7.00;6.30;;;12.70;99.90;15.60;99880.00;;;;5446251;26;19998;-47
2024/05/07 06:15:43;;;;;;;9.15;6.53;;;12.60;99.90;15.50;99890.00;;;;5441410;26;20013;-49
2024/05/07 06:18:11;;;;;;;7.50;5.88;;;12.70;99.90;15.50;99890.00;;;;5432079;26;20450;-48
2024/05/07 06:20:38;;;;;;;7.47;6.13;;;12.70;99.90;15.80;99891.00;;;;5440833;26;20006;-47
2024/05/07 06:23:04;;;;;;;7.35;6.05;;;12.70;99.90;15.50;99893.00;;;;5452382;26;20309;-48
2024/05/07 06:25:30;;;;;;;6.60;5.90;;;12.60;99.90;16.20;99902.00;;;;5441925;26;19998;-47
2024/05/07 06:27:57;;;;;;;5.97;5.38;;;12.70;99.90;16.10;99895.00;;;;5433131;26;20010;-47
2024/05/07 06:30:25;;;;;;;6.22;5.63;;;12.90;99.90;16.00;99898.00;;;;5445450;26;20003;-50
2024/05/07 06:32:51;;;;;;;5.80;5.30;;;12.80;99.90;15.40;99909.00;;;;5442945;26;19998;-49
2024/05/07 06:35:17;;;;;;;8.52;5.28;;;12.70;99.90;15.60;99914.00;;;;5426239;26;20003;-47
2024/05/07 06:37:43;;;;;;;6.20;5.50;;;12.50;99.90;15.20;99907.00;;;;5452936;26;20006;-55
2024/05/07 06:40:10;;;;;;;8.35;5.63;;;12.50;99.90;15.70;99912.00;;;;5452266;26;20460;-51
2024/05/07 06:42:36;;;;;;;7.03;5.50;;;12.50;99.90;15.20;99911.00;;;;5433369;26;19996;-46
2024/05/07 06:45:04;;;;;;;6.18;5.57;;;12.50;99.90;15.50;99922.00;;;;5450076;26;20006;-49
2024/05/07 06:47:31;;;;;;;6.45;5.18;;;12.50;99.90;15.50;99918.00;;;;5437480;26;20006;-50
2024/05/07 06:49:58;;;;;;;7.50;4.93;;;12.60;99.90;16.00;99910.00;;;;5456470;26;19999;-49
2024/05/07 06:52:24;;;;;;;6.43;5.82;;;12.70;99.90;15.90;99916.00;;;;5443345;26;20088;-49
2024/05/07 06:54:51;;;;;;;6.95;5.60;;;12.70;99.90;15.90;99919.00;;;;5448923;26;19996;-50
2024/05/07 06:57:17;;;;;;;7.70;5.30;;;12.90;99.90;15.80;99924.00;;;;5448055;26;20013;-51
2024/05/07 06:59:43;;;;;;;9.95;5.30;;;12.90;99.90;16.00;99930.00;;;;5447034;26;20043;-47
2024/05/07 07:02:09;;;;;;;6.25;5.65;;;12.90;99.90;16.00;99928.00;;;;5448686;26;20406;-50
2024/05/07 07:04:38;;;;;;;5.82;5.13;;;13.00;99.90;15.80;99944.00;;;;5445677;26;20061;-55
2024/05/07 07:07:04;;;;;;;8.82;5.40;;;13.00;99.90;16.30;99935.00;;;;5452121;26;20008;-50
2024/05/07 07:09:30;;;;;;;7.85;5.35;;;13.00;99.90;15.80;99934.00;;;;5448156;26;20003;-53
2024/05/07 07:11:56;;;;;;;12.90;6.38;;;13.10;99.90;16.30;99942.00;;;;5447882;26;20072;-50
2024/05/07 07:14:25;;;;;;;6.75;5.63;;;13.10;99.90;16.80;99948.00;;;;5438838;26;20011;-47
2024/05/07 07:16:59;;;;;;;7.25;5.50;;;13.30;99.90;16.50;99947.00;;;;5433194;26;20737;-47
2024/05/07 07:19:27;;;;;;;7.03;5.00;;;13.40;99.90;16.80;99955.00;;;;5434358;26;20002;-50
2024/05/07 07:21:53;;;;;;;6.93;4.93;;;13.60;99.90;16.50;99955.00;;;;5449477;26;20417;-47
2024/05/07 07:24:19;;;;;;;6.35;4.80;;;13.60;99.90;16.70;99951.00;;;;5441391;26;20002;-49
2024/05/07 07:26:46;;;;;;;5.60;4.53;;;13.50;99.90;16.30;99966.00;;;;5452343;26;20350;-47
2024/05/07 07:29:12;;;;;;;6.55;4.30;;;13.50;99.90;16.40;99956.00;;;;5455008;26;19995;-46
2024/05/07 07:31:38;;;;;;;4.38;3.75;;;13.50;99.90;16.70;99960.00;;;;5449575;26;20034;-50
2024/05/07 07:34:04;;;;;;;6.53;4.05;;;13.50;99.90;16.80;99960.00;;;;5450432;26;19995;-51
2024/05/07 07:36:31;;;;;;;5.90;4.43;;;13.70;99.90;16.80;99965.00;;;;5432587;26;20012;-48
2024/05/07 07:38:57;;;;;;;4.30;3.90;;;13.90;99.90;17.20;99964.00;;;;5431671;26;20007;-46
2024/05/07 07:41:23;;;;;;;4.97;3.67;;;14.30;99.90;18.10;99965.00;;;;5439370;26;20325;-47
2024/05/07 07:43:50;;;;;;;5.55;3.80;;;14.70;99.90;18.10;99970.00;;;;5444423;26;20048;-51
2024/05/07 07:46:16;;;;;;;5.45;3.50;;;14.90;99.90;17.50;99982.00;;;;5441530;26;20018;-55
2024/05/07 07:48:42;;;;;;;4.68;3.60;;;15.00;99.90;17.30;99978.00;;;;5440072;26;20009;-48
2024/05/07 07:51:08;;;;;;;7.63;3.17;;;14.70;99.90;17.30;99989.00;;;;5438674;26;19999;-50
2024/05/07 07:53:34;;;;;;;3.88;3.58;;;14.60;99.90;17.10;99996.00;;;;5438937;26;19998;-52
2024/05/07 07:56:01;;;;;;;4.35;3.88;;;14.50;99.90;17.80;99995.00;;;;5433722;26;20380;-47
2024/05/07 07:58:27;;;;;;;4.78;3.50;;;14.40;99.90;17.80;99999.00;;;;5439171;26;19998;-47
2024/05/07 08:00:53;;;;;;;4.82;3.28;;;14.30;99.90;17.40;100011.00;;;;5444141;26;20066;-48
2024/05/07 08:03:19;;;;;;;3.55;3.22;;;14.20;99.90;17.10;100009.00;;;;5476328;26;20011;-48
2024/05/07 08:05:46;;;;;;;4.32;3.40;;;14.00;99.90;17.50;100011.00;;;;5437596;26;20023;-54
2024/05/07 08:08:12;;;;;;;8.00;3.38;;;13.90;99.90;17.00;100020.00;;;;5471121;26;20004;-51
2024/05/07 08:10:39;;;;;;;9.20;3.47;;;13.70;99.90;16.60;100023.00;;;;5443162;26;20027;-54
2024/05/07 08:13:07;;;;;;;4.40;3.72;;;13.60;99.90;16.80;100028.00;;;;5444336;26;20003;-48
2024/05/07 08:15:34;;;;;;;6.13;3.30;;;13.50;99.90;16.60;100025.00;;;;5445184;26;20340;-48
2024/05/07 08:18:00;;;;;;;6.35;3.78;;;13.40;99.90;16.50;100027.00;;;;5445916;26;20019;-48
2024/05/07 08:20:26;;;;;;;3.63;3.33;;;13.40;99.90;17.00;100032.00;;;;5439393;26;20000;-53
2024/05/07 08:22:52;;;;;;;3.20;2.90;;;13.50;99.90;17.50;100031.00;;;;5444759;26;20009;-49
2024/05/07 08:25:19;;;;;;;3.75;2.97;;;13.70;99.90;17.20;100036.00;;;;5446793;26;19998;-55
2024/05/07 08:27:45;;;;;;;4.05;2.60;;;13.90;99.90;17.60;100032.00;;;;5449018;26;20014;-53
2024/05/07 08:30:11;;;;;;;4.57;3.00;;;14.10;99.90;17.60;100027.00;;;;5443164;26;20294;-48
2024/05/07 08:32:38;;;;;;;4.13;3.15;;;14.40;99.90;17.10;100040.00;;;;5419253;26;20122;-49
2024/05/07 08:35:04;;;;;;;10.32;2.90;;;14.40;99.90;17.60;100044.00;;;;5441698;26;20003;-48
2024/05/07 08:37:30;;;;;;;4.55;2.65;;;14.50;99.90;17.90;100046.00;;;;5444526;26;20019;-48
2024/05/07 08:39:57;;;;;;;2.50;2.30;;;14.70;99.90;18.00;100057.00;;;;5449288;26;20014;-50
2024/05/07 08:42:26;;;;;;;5.35;2.30;;;14.80;99.90;18.40;100054.00;;;;5449510;26;19999;-52
2024/05/07 08:44:54;;;;;;;2.22;1.98;;;15.10;99.90;18.40;100054.00;;;;5443667;26;20022;-49
2024/05/07 08:47:26;;;;;;;2.50;1.90;;;15.20;99.90;19.00;100054.00;;;;5450325;26;20410;-54
2024/05/07 08:49:52;;;;;;;1.48;1.38;;;15.50;99.90;18.20;100074.00;;;;5456073;26;20007;-48
2024/05/07 08:52:25;;;;;;;1.70;1.60;;;15.50;99.90;17.80;100066.00;;;;5452052;26;20003;-49
2024/05/07 08:54:51;;;;;;;1.65;1.55;;;15.20;99.90;18.20;100069.00;;;;5442618;26;20592;-47
2024/05/07 08:57:20;;;;;;;1.90;1.80;;;15.00;99.90;17.40;100075.00;;;;5445404;26;20003;-47
2024/05/07 08:59:48;;;;;;;3.05;1.52;;;14.80;99.90;17.30;100078.00;;;;5450931;26;20424;-48
2024/05/07 09:02:14;;;;;;;2.17;1.73;;;14.60;99.90;17.50;100093.00;;;;5456229;26;19995;-49
2024/05/07 09:04:42;;;;;;;2.08;1.70;;;14.50;99.90;17.90;100097.00;;;;5449954;26;20017;-47
2024/05/07 09:07:08;;;;;;;2.80;1.75;;;14.60;99.90;17.10;100098.00;;;;5451196;26;22149;-48
2024/05/07 09:09:39;;;;;;;3.25;1.88;;;14.50;99.90;17.30;100103.00;;;;5450905;26;20018;-65
2024/05/07 09:12:06;;;;;;;3.78;1.42;;;14.50;99.90;17.20;100109.00;;;;5448238;26;20018;-50
2024/05/07 09:14:32;;;;;;;1.33;1.23;;;14.40;99.90;17.20;100103.00;;;;5453139;26;20477;-52
2024/05/07 09:17:02;;;;;;;3.15;1.50;;;14.30;99.90;16.90;100119.00;;;;5446794;26;20440;-65
2024/05/07 09:19:29;;;;;;;2.15;1.67;;;14.10;99.90;16.80;100134.00;;;;5476268;26;20006;-48
2024/05/07 09:21:56;;;;;;;1.85;1.75;;;14.10;99.90;16.80;100122.00;;;;5444142;26;20371;-50
2024/05/07 09:24:23;;;;;;;2.70;1.48;;;13.90;99.90;17.40;100126.00;;;;5441878;26;20023;-52
2024/05/07 09:26:59;;;;;;;3.13;1.67;;;13.90;99.90;17.10;100123.00;;;;5446546;26;20075;-48
2024/05/07 09:29:45;;;;;;;5.68;1.90;;;14.00;99.90;16.80;100141.00;;;;5448570;26;20510;-51
2024/05/07 09:32:21;;;;;;;3.33;2.03;;;14.00;99.90;17.00;100145.00;;;;5452950;26;20034;-52
2024/05/07 09:35:10;;;;;;;2.88;1.80;;;14.10;99.90;16.20;100148.00;;;;5450767;26;20337;-50
2024/05/07 09:37:44;;;;;;;6.88;2.10;;;13.90;99.90;15.90;100159.00;;;;5420489;26;20085;-55
2024/05/07 09:40:32;;;;;;;7.00;1.70;;;13.60;99.90;15.60;100169.00;;;;5450873;26;20007;-47
2024/05/07 09:43:13;;;;;;;3.17;1.70;;;13.20;99.90;15.50;100181.00;;;;5453656;26;20002;-48
2024/05/07 09:45:52;;;;;;;3.88;1.08;;;12.90;99.90;15.10;100192.00;;;;5446565;26;20003;-50
2024/05/07 09:48:21;;;;;;;3.30;1.20;;;12.70;99.90;15.00;100204.00;;;;5447791;26;20395;-46
2024/05/07 09:50:51;;;;;;;2.65;0.95;;;12.60;99.90;14.80;100195.00;;;;5450433;26;20007;-52
2024/05/07 09:53:17;;;;;;;1.00;1.00;;;12.40;99.90;14.70;100207.00;;;;5449571;26;20759;-49
2024/05/07 09:55:51;;;;;;;3.00;1.10;;;12.20;99.90;14.90;100215.00;;;;5451072;26;20425;-52
2024/05/07 09:58:19;;;;;;;4.43;0.90;;;12.10;99.90;14.20;100220.00;;;;5441609;26;20494;-59
2024/05/07 10:00:45;;;;;;;1.83;0.90;;;12.10;99.90;15.00;100224.00;;;;5431895;26;20007;-54
2024/05/07 10:03:12;;;;;;;3.63;1.30;;;12.20;99.90;15.20;100219.00;;;;5431571;26;20018;-50
2024/05/07 10:05:38;;;;;;;2.13;1.10;;;12.40;99.90;14.70;100228.00;;;;5467256;26;20003;-57
2024/05/07 10:08:13;;;;;;;0.82;0.82;;;12.60;99.90;15.50;100219.00;;;;5428009;26;20137;-48
2024/05/07 10:10:40;;;;;;;2.60;1.20;;;12.60;99.90;16.00;100225.00;;;;5424873;26;20003;-48
2024/05/07 10:13:08;;;;;;;2.30;1.00;;;13.00;99.90;16.20;100227.00;;;;5438768;26;20000;-48
2024/05/07 10:15:34;;;;;;;2.70;0.98;;;13.10;99.90;15.70;100238.00;;;;5435584;26;19998;-48
2024/05/07 10:18:01;;;;;;;3.38;0.82;;;13.20;99.90;15.80;100232.00;;;;5436236;26;20483;-48
2024/05/07 10:20:28;;;;;;;4.28;0.88;;;13.20;99.90;15.90;100237.00;;;;5438404;26;19999;-61
2024/05/07 10:23:11;;;;;;;4.13;1.10;;;13.20;99.90;16.30;100251.00;;;;5436676;26;20009;-50
2024/05/07 10:25:42;;;;;;;1.83;0.90;;;13.30;99.90;16.80;100248.00;;;;5440341;26;19995;-48
2024/05/07 10:28:11;;;;;;;1.83;0.50;;;13.50;99.90;15.60;100249.00;;;;5435663;26;20020;-48
2024/05/07 10:30:37;;;;;;;3.38;0.80;;;13.50;99.90;16.30;100252.00;;;;5435695;26;19999;-53
2024/05/07 10:33:04;;;;;;;0.60;0.60;;;13.60;99.90;16.00;100259.00;;;;5447717;26;20009;-50
2024/05/07 10:35:30;;;;;;;2.55;0.82;;;13.70;99.90;16.90;100252.00;;;;5449715;26;20378;-48
2024/05/07 10:37:57;;;;;;;2.95;0.70;;;14.00;99.90;16.90;100265.00;;;;5453200;26;20035;-49
2024/05/07 10:40:25;;;;;;;0.80;0.73;;;14.20;99.90;17.20;100262.00;;;;5461161;26;20010;-54
2024/05/07 10:42:51;;;;;;;5.38;1.00;;;14.40;99.90;17.60;100258.00;;;;5448056;26;20407;-48
2024/05/07 10:45:18;;;;;;;2.95;0.88;;;14.60;99.90;18.90;100257.00;;;;5447039;26;20072;-47
2024/05/07 10:47:44;;;;;;;0.88;0.50;;;15.10;99.90;18.50;100262.00;;;;5456517;26;19998;-48
2024/05/07 10:50:12;;;;;;;2.25;0.40;;;15.40;99.90;18.70;100272.00;;;;5415740;26;20075;-59
2024/05/07 10:52:38;;;;;;;1.50;0.47;;;15.60;99.90;18.90;100265.00;;;;5449044;26;20104;-52